createdAt,value
2018-09-19T00:00:40.831Z,12.13
2018-09-19T00:03:09.644Z,12.17
2018-09-19T00:05:38.471Z,11.67
2018-09-19T00:08:07.343Z,12.30
2018-09-19T00:10:36.458Z,12.23
2018-09-19T00:13:05.375Z,12.87
2018-09-19T00:15:34.139Z,12.27
2018-09-19T00:18:03.047Z,11.90
2018-09-19T00:20:32.081Z,12.57
2018-09-19T00:23:00.687Z,12.20
2018-09-19T00:25:29.520Z,11.60
2018-09-19T00:27:58.475Z,9.03
2018-09-19T00:30:27.164Z,11.00
2018-09-19T00:32:55.787Z,12.03
2018-09-19T00:35:24.510Z,11.57
2018-09-19T00:37:53.279Z,11.20
2018-09-19T00:40:22.237Z,11.20
2018-09-19T00:42:51.306Z,11.63
2018-09-19T00:45:20.195Z,10.23
2018-09-19T00:47:49.013Z,11.10
2018-09-19T00:50:18.173Z,11.43
2018-09-19T00:52:47.091Z,11.50
2018-09-19T00:55:15.880Z,10.97
2018-09-19T00:57:45.117Z,9.90
2018-09-19T01:00:14.094Z,11.50
2018-09-19T01:02:43.169Z,11.80
2018-09-19T01:05:11.834Z,11.60
2018-09-19T01:07:40.704Z,10.93
2018-09-19T01:10:09.834Z,10.07
2018-09-19T01:12:39.040Z,9.77
2018-09-19T01:15:07.999Z,10.40
2018-09-19T01:17:36.969Z,9.63
2018-09-19T01:20:05.950Z,11.07
2018-09-19T01:22:35.173Z,10.87
2018-09-19T01:25:04.199Z,10.80
2018-09-19T01:27:32.948Z,10.17
2018-09-19T01:30:01.584Z,11.23
2018-09-19T01:32:30.709Z,11.57
2018-09-19T01:34:59.422Z,9.20
2018-09-19T01:37:28.254Z,9.23
2018-09-19T01:39:56.965Z,9.20
2018-09-19T01:42:25.808Z,9.97
2018-09-19T01:44:54.713Z,9.57
2018-09-19T01:47:23.867Z,9.30
2018-09-19T01:49:52.689Z,9.57
2018-09-19T01:52:21.562Z,8.83
2018-09-19T01:54:50.635Z,8.73
2018-09-19T01:57:19.588Z,7.33
2018-09-19T01:59:48.422Z,6.80
2018-09-19T02:02:17.604Z,7.63
2018-09-19T02:04:46.591Z,7.20
2018-09-19T02:07:15.597Z,7.10
2018-09-19T02:09:44.220Z,7.80
2018-09-19T02:12:13.114Z,8.13
2018-09-19T02:14:41.843Z,8.30
2018-09-19T02:17:11.023Z,8.23
2018-09-19T02:19:39.955Z,8.03
2018-09-19T02:22:09.083Z,6.83
2018-09-19T02:24:38.086Z,7.83
2018-09-19T02:27:07.051Z,8.13
2018-09-19T02:29:36.014Z,7.00
2018-09-19T02:32:05.038Z,7.30
2018-09-19T02:34:34.017Z,6.67
2018-09-19T02:37:02.811Z,7.27
2018-09-19T02:39:31.613Z,9.80
2018-09-19T02:42:00.291Z,9.80
2018-09-19T02:44:28.894Z,8.67
2018-09-19T02:46:57.609Z,8.97
2018-09-19T02:49:26.759Z,10.00
2018-09-19T02:51:59.384Z,9.43
2018-09-19T02:54:30.218Z,10.33
2018-09-19T02:56:59.551Z,9.00
2018-09-19T02:59:28.610Z,9.90
2018-09-19T03:01:57.454Z,9.43
2018-09-19T03:04:26.160Z,9.90
2018-09-19T03:06:54.877Z,9.67
2018-09-19T03:09:23.843Z,9.77
2018-09-19T03:11:52.773Z,10.23
2018-09-19T03:14:21.916Z,10.33
2018-09-19T03:19:19.515Z,10.00
2018-09-19T03:24:51.015Z,9.03
2018-09-19T03:27:19.972Z,9.70
2018-09-19T03:29:48.927Z,9.80
2018-09-19T03:32:17.861Z,10.40
2018-09-19T03:34:46.589Z,10.77
2018-09-19T03:37:15.601Z,10.37
2018-09-19T03:39:44.279Z,11.07
2018-09-19T03:42:12.981Z,9.77
2018-09-19T03:44:41.706Z,10.13
2018-09-19T03:47:10.415Z,8.77
2018-09-19T03:49:39.280Z,10.73
2018-09-19T03:52:08.284Z,9.97
2018-09-19T03:54:37.174Z,11.10
2018-09-19T03:57:06.067Z,10.67
2018-09-19T03:59:34.802Z,11.17
2018-09-19T04:02:03.613Z,11.67
2018-09-19T04:04:32.321Z,9.83
2018-09-19T04:07:01.166Z,9.83
2018-09-19T04:09:30.308Z,9.70
2018-09-19T04:11:59.584Z,9.60
2018-09-19T04:14:28.724Z,9.30
2018-09-19T04:16:57.774Z,11.03
2018-09-19T04:19:26.878Z,9.93
2018-09-19T04:21:57.026Z,10.60
2018-09-19T04:24:25.949Z,12.77
2018-09-19T04:26:54.533Z,10.93
2018-09-19T04:29:23.360Z,9.93
2018-09-19T04:31:52.088Z,9.60
2018-09-19T04:34:20.910Z,11.67
2018-09-19T04:36:49.858Z,10.93
2018-09-19T04:39:18.841Z,11.40
2018-09-19T04:41:47.819Z,9.87
2018-09-19T04:44:16.818Z,10.37
2018-09-19T04:46:45.756Z,10.10
2018-09-19T04:49:14.672Z,10.37
2018-09-19T04:51:43.806Z,11.30
2018-09-19T04:54:12.555Z,10.47
2018-09-19T04:56:41.471Z,11.87
2018-09-19T04:59:10.549Z,10.83
2018-09-19T05:01:39.197Z,10.93
2018-09-19T05:04:08.463Z,10.63
2018-09-19T05:06:37.583Z,12.63
2018-09-19T05:09:08.479Z,12.13
2018-09-19T05:11:37.568Z,10.83
2018-09-19T05:14:07.055Z,8.97
2018-09-19T05:16:36.101Z,8.23
2018-09-19T05:19:05.076Z,9.73
2018-09-19T05:21:34.024Z,9.00
2018-09-19T05:24:02.842Z,8.63
2018-09-19T05:26:31.625Z,8.03
2018-09-19T05:29:00.330Z,16.10
2018-09-19T05:31:29.117Z,8.77
2018-09-19T05:33:58.346Z,8.63
2018-09-19T05:36:27.105Z,8.30
2018-09-19T05:38:55.788Z,10.00
2018-09-19T05:41:24.463Z,7.00
2018-09-19T05:43:53.252Z,8.73
2018-09-19T05:46:22.029Z,11.00
2018-09-19T05:48:50.855Z,10.50
2018-09-19T05:51:19.739Z,11.43
2018-09-19T05:53:48.558Z,10.63
2018-09-19T05:56:17.243Z,10.17
2018-09-19T05:58:45.958Z,7.13
2018-09-19T06:01:14.554Z,8.20
2018-09-19T06:03:43.147Z,9.00
2018-09-19T06:06:11.800Z,7.20
2018-09-19T06:08:40.536Z,7.53
2018-09-19T06:11:09.257Z,8.40
2018-09-19T06:13:37.955Z,8.43
2018-09-19T06:16:06.607Z,7.57
2018-09-19T06:18:35.404Z,9.27
2018-09-19T06:21:04.110Z,9.00
2018-09-19T06:23:32.758Z,8.57
2018-09-19T06:26:01.546Z,8.73
2018-09-19T06:28:31.042Z,7.63
2018-09-19T06:30:59.675Z,7.90
2018-09-19T06:33:28.504Z,8.27
2018-09-19T06:35:57.188Z,7.97
2018-09-19T06:38:25.960Z,9.00
2018-09-19T06:40:54.690Z,7.77
2018-09-19T06:43:23.307Z,6.93
2018-09-19T06:45:52.160Z,7.37
2018-09-19T06:48:21.059Z,8.47
2018-09-19T06:50:49.771Z,7.53
2018-09-19T06:53:18.514Z,8.70
2018-09-19T06:55:47.200Z,8.63
2018-09-19T06:58:15.890Z,9.63
2018-09-19T07:00:44.487Z,8.90
2018-09-19T07:03:13.197Z,8.80
2018-09-19T07:05:41.972Z,8.57
2018-09-19T07:08:10.675Z,7.47
2018-09-19T07:10:39.429Z,8.17
2018-09-19T07:13:08.108Z,8.97
2018-09-19T07:15:36.747Z,9.13
2018-09-19T07:18:05.400Z,9.50
2018-09-19T07:20:34.029Z,9.70
2018-09-19T07:23:02.799Z,8.10
2018-09-19T07:25:31.601Z,8.37
2018-09-19T07:28:00.196Z,8.43
2018-09-19T07:30:28.966Z,8.60
2018-09-19T07:32:57.725Z,7.33
2018-09-19T07:35:26.455Z,8.10
2018-09-19T07:37:55.091Z,8.50
2018-09-19T07:40:23.930Z,8.03
2018-09-19T07:42:52.610Z,8.33
2018-09-19T07:45:21.262Z,8.30
2018-09-19T07:47:49.966Z,7.43
2018-09-19T07:50:18.754Z,7.20
2018-09-19T07:52:47.503Z,7.27
2018-09-19T07:55:16.262Z,7.90
2018-09-19T07:57:44.803Z,6.53
2018-09-19T08:00:13.420Z,7.00
2018-09-19T08:02:42.054Z,7.13
2018-09-19T08:05:10.787Z,6.80
2018-09-19T08:07:39.387Z,6.57
2018-09-19T08:10:08.066Z,7.17
2018-09-19T08:12:36.755Z,6.60
2018-09-19T08:15:05.595Z,7.00
2018-09-19T08:17:34.338Z,5.87
2018-09-19T08:20:02.971Z,6.40
2018-09-19T08:22:31.763Z,6.93
2018-09-19T08:25:00.334Z,6.10
2018-09-19T08:27:28.995Z,6.60
2018-09-19T08:29:57.573Z,6.53
2018-09-19T08:32:26.339Z,6.93
2018-09-19T08:34:55.043Z,6.70
2018-09-19T08:37:23.840Z,6.37
2018-09-19T08:39:52.666Z,6.70
2018-09-19T08:42:21.415Z,6.63
2018-09-19T08:44:50.142Z,6.67
2018-09-19T08:47:18.795Z,6.07
2018-09-19T08:49:47.496Z,6.67
2018-09-19T08:52:16.143Z,6.10
2018-09-19T08:54:44.894Z,5.67
2018-09-19T08:57:13.616Z,5.77
2018-09-19T08:59:42.327Z,5.90
2018-09-19T09:02:11.099Z,5.63
2018-09-19T09:04:39.727Z,6.50
2018-09-19T09:07:08.545Z,5.63
2018-09-19T09:09:37.342Z,5.60
2018-09-19T09:12:06.117Z,5.87
2018-09-19T09:14:34.692Z,6.10
2018-09-19T09:17:03.395Z,5.33
2018-09-19T09:19:32.134Z,5.47
2018-09-19T09:22:00.726Z,5.33
2018-09-19T09:24:29.331Z,5.00
2018-09-19T09:26:58.034Z,5.03
2018-09-19T09:29:26.586Z,5.62
2018-09-19T09:31:55.391Z,5.78
2018-09-19T09:34:24.117Z,4.83
2018-09-19T09:36:52.757Z,5.20
2018-09-19T09:39:21.477Z,4.63
2018-09-19T09:41:50.494Z,4.63
2018-09-19T09:44:19.231Z,4.85
2018-09-19T09:46:48.181Z,5.50
2018-09-19T09:49:17.348Z,4.87
2018-09-19T09:51:46.272Z,5.58
2018-09-19T09:54:15.034Z,4.90
2018-09-19T09:56:43.738Z,5.33
2018-09-19T09:59:12.508Z,5.83
2018-09-19T10:01:41.227Z,5.67
2018-09-19T10:04:10.224Z,4.55
2018-09-19T10:06:38.803Z,4.37
2018-09-19T10:09:08.509Z,5.17
2018-09-19T10:11:37.323Z,5.22
2018-09-19T10:14:06.195Z,4.72
2018-09-19T10:16:35.037Z,4.85
2018-09-19T10:19:04.178Z,5.37
2018-09-19T10:21:33.109Z,4.90
2018-09-19T10:24:01.822Z,5.17
2018-09-19T10:26:30.675Z,5.40
2018-09-19T10:28:59.559Z,4.90
2018-09-19T10:31:28.215Z,5.78
2018-09-19T10:33:56.832Z,4.45
2018-09-19T10:36:25.500Z,4.55
2018-09-19T10:38:54.432Z,4.58
2018-09-19T10:41:23.319Z,4.62
2018-09-19T10:43:52.430Z,5.40
2018-09-19T10:46:21.267Z,4.50
2018-09-19T10:48:50.083Z,5.15
2018-09-19T10:51:19.045Z,4.90
2018-09-19T10:53:47.753Z,4.92
2018-09-19T10:56:16.521Z,4.62
2018-09-19T10:58:45.296Z,5.12
2018-09-19T11:01:14.352Z,5.35
2018-09-19T11:03:43.490Z,5.08
2018-09-19T11:06:12.407Z,4.70
2018-09-19T11:08:41.457Z,4.42
2018-09-19T11:11:10.703Z,4.60
2018-09-19T11:13:39.605Z,5.03
2018-09-19T11:16:08.642Z,5.17
2018-09-19T11:18:37.659Z,5.17
2018-09-19T11:21:06.868Z,4.78
2018-09-19T11:23:35.625Z,5.28
2018-09-19T11:26:04.275Z,4.62
2018-09-19T11:28:33.163Z,4.53
2018-09-19T11:31:01.814Z,4.12
2018-09-19T11:33:30.546Z,4.22
2018-09-19T11:35:59.467Z,4.80
2018-09-19T11:38:28.369Z,3.98
2018-09-19T11:40:57.115Z,3.50
2018-09-19T11:43:25.924Z,4.45
2018-09-19T11:45:55.071Z,3.42
2018-09-19T11:48:24.059Z,3.60
2018-09-19T11:50:53.141Z,4.10
2018-09-19T11:53:27.135Z,4.42
2018-09-19T11:55:56.629Z,5.45
2018-09-19T11:58:25.421Z,4.67
2018-09-19T12:00:54.205Z,4.03
2018-09-19T12:03:23.133Z,4.05
2018-09-19T12:05:51.948Z,3.98
2018-09-19T12:08:21.359Z,3.60
2018-09-19T12:10:50.591Z,4.95
2018-09-19T12:13:19.505Z,4.72
2018-09-19T12:15:48.270Z,4.60
2018-09-19T12:18:17.390Z,3.62
2018-09-19T12:20:46.251Z,3.62
2018-09-19T12:23:14.838Z,4.10
2018-09-19T12:25:43.438Z,4.37
2018-09-19T12:28:12.539Z,3.85
2018-09-19T12:30:41.439Z,3.77
2018-09-19T12:33:10.094Z,4.28
2018-09-19T12:35:38.891Z,3.83
2018-09-19T12:38:07.987Z,3.27
2018-09-19T12:40:37.076Z,3.27
2018-09-19T12:43:06.230Z,3.85
2018-09-19T12:45:35.030Z,3.50
2018-09-19T12:48:03.870Z,3.72
2018-09-19T12:50:32.691Z,3.45
2018-09-19T12:53:01.481Z,3.58
2018-09-19T12:55:31.282Z,3.80
2018-09-19T12:58:00.207Z,3.70
2018-09-19T13:00:28.942Z,4.70
2018-09-19T13:02:57.975Z,3.72
2018-09-19T13:05:27.807Z,3.47
2018-09-19T13:07:56.644Z,3.90
2018-09-19T13:10:25.612Z,3.98
2018-09-19T13:12:54.633Z,4.30
2018-09-19T13:15:23.542Z,3.90
2018-09-19T13:17:52.207Z,3.70
2018-09-19T13:20:21.111Z,3.15
2018-09-19T13:22:49.782Z,3.67
2018-09-19T13:25:18.494Z,3.83
2018-09-19T13:27:47.631Z,4.30
2018-09-19T13:30:16.463Z,3.55
2018-09-19T13:32:45.503Z,3.83
2018-09-19T13:35:14.563Z,3.77
2018-09-19T13:37:43.552Z,3.00
2018-09-19T13:40:12.507Z,3.37
2018-09-19T13:42:41.567Z,4.40
2018-09-19T13:45:10.726Z,3.27
2018-09-19T13:47:39.579Z,3.90
2018-09-19T13:52:14.878Z,3.58
2018-09-19T13:54:43.554Z,3.27
2018-09-19T13:57:12.435Z,4.78
2018-09-19T13:59:41.506Z,3.33
2018-09-19T14:02:10.753Z,4.00
2018-09-19T14:04:40.071Z,3.65
2018-09-19T14:07:08.943Z,5.97
2018-09-19T14:09:37.771Z,4.47
2018-09-19T14:12:06.279Z,4.92
2018-09-19T14:14:35.503Z,4.90
2018-09-19T14:17:04.515Z,4.35
2018-09-19T14:19:33.351Z,4.33
2018-09-19T14:22:02.109Z,4.47
2018-09-19T14:24:31.147Z,4.05
2018-09-19T14:26:59.771Z,3.55
2018-09-19T14:29:28.978Z,3.98
2018-09-19T14:31:58.174Z,5.37
2018-09-19T14:34:27.107Z,4.72
2018-09-19T14:36:56.229Z,4.22
2018-09-19T14:39:25.121Z,3.92
2018-09-19T14:41:53.908Z,4.20
2018-09-19T14:44:23.068Z,4.12
2018-09-19T14:46:51.758Z,5.25
2018-09-19T14:49:20.437Z,4.15
2018-09-19T14:51:49.164Z,5.22
2018-09-19T14:54:18.122Z,4.83
2018-09-19T14:56:47.166Z,5.03
2018-09-19T14:59:16.473Z,5.03
2018-09-19T15:01:45.495Z,4.80
2018-09-19T15:04:14.394Z,5.00
2018-09-19T15:06:43.331Z,3.92
2018-09-19T15:09:12.549Z,5.03
2018-09-19T15:11:41.594Z,4.47
2018-09-19T15:14:10.538Z,4.20
2018-09-19T15:16:39.193Z,4.60
2018-09-19T15:19:07.891Z,3.37
2018-09-19T15:21:36.487Z,3.50
2018-09-19T15:24:05.263Z,3.52
2018-09-19T15:26:34.152Z,3.72
2018-09-19T15:29:02.915Z,3.85
2018-09-19T15:31:31.789Z,3.58
2018-09-19T15:34:00.731Z,3.30
2018-09-19T15:36:29.870Z,3.75
2018-09-19T15:38:58.926Z,2.95
2018-09-19T15:41:27.880Z,3.75
2018-09-19T15:43:56.982Z,3.40
2018-09-19T15:46:25.668Z,3.62
2018-09-19T15:48:54.318Z,3.72
2018-09-19T15:51:22.933Z,3.77
2018-09-19T15:53:51.731Z,3.55
2018-09-19T15:56:20.925Z,3.60
2018-09-19T15:58:49.786Z,3.98
2018-09-19T16:01:18.718Z,3.90
2018-09-19T16:03:47.437Z,3.47
2018-09-19T16:06:16.351Z,3.35
2018-09-19T16:08:45.503Z,3.45
2018-09-19T16:11:14.779Z,3.35
2018-09-19T16:13:43.788Z,4.03
2018-09-19T16:16:12.476Z,3.42
2018-09-19T16:18:41.115Z,4.58
2018-09-19T16:21:10.269Z,3.72
2018-09-19T16:23:39.250Z,3.30
2018-09-19T16:26:08.265Z,3.02
2018-09-19T16:28:37.666Z,3.35
2018-09-19T16:31:07.057Z,3.55
2018-09-19T16:33:36.068Z,3.17
2018-09-19T16:36:05.138Z,3.75
2018-09-19T16:38:34.035Z,4.97
2018-09-19T16:41:02.814Z,3.47
2018-09-19T16:43:32.065Z,3.35
2018-09-19T16:46:00.835Z,3.50
2018-09-19T16:48:29.637Z,4.05
2018-09-19T16:50:58.610Z,3.35
2018-09-19T16:53:27.879Z,3.60
2018-09-19T16:55:57.228Z,3.50
2018-09-19T16:58:26.349Z,3.57
2018-09-19T17:00:55.512Z,3.37
2018-09-19T17:03:24.400Z,4.33
2018-09-19T17:05:53.320Z,4.63
2018-09-19T17:08:22.001Z,4.40
2018-09-19T17:10:50.864Z,5.23
2018-09-19T17:13:19.740Z,3.67
2018-09-19T17:15:48.442Z,4.83
2018-09-19T17:18:17.088Z,5.73
2018-09-19T17:20:46.033Z,6.77
2018-09-19T17:23:14.923Z,5.20
2018-09-19T17:25:43.832Z,7.93
2018-09-19T17:28:12.951Z,5.07
2018-09-19T17:30:42.204Z,5.63
2018-09-19T17:33:11.498Z,5.63
2018-09-19T17:35:40.592Z,5.33
2018-09-19T17:38:09.930Z,6.33
2018-09-19T17:40:39.167Z,4.93
2018-09-19T17:43:08.011Z,4.57
2018-09-19T17:45:36.684Z,4.83
2018-09-19T17:48:05.395Z,5.50
2018-09-19T17:50:34.407Z,4.97
2018-09-19T17:53:03.218Z,5.20
2018-09-19T17:55:32.170Z,4.90
2018-09-19T17:58:01.291Z,5.40
2018-09-19T18:00:30.223Z,6.50
2018-09-19T18:02:59.308Z,6.27
2018-09-19T18:05:28.214Z,5.27
2018-09-19T18:07:57.283Z,4.73
2018-09-19T18:10:26.387Z,6.00
2018-09-19T18:12:55.145Z,6.87
2018-09-19T18:15:23.775Z,5.57
2018-09-19T18:17:52.525Z,5.63
2018-09-19T18:20:21.378Z,7.97
2018-09-19T18:22:50.238Z,6.40
2018-09-19T18:25:19.107Z,6.97
2018-09-19T18:27:48.064Z,5.73
2018-09-19T18:30:17.215Z,6.10
2018-09-19T18:32:45.925Z,5.47
2018-09-19T18:35:14.892Z,5.33
2018-09-19T18:37:43.802Z,6.27
2018-09-19T18:40:12.621Z,5.60
2018-09-19T18:42:41.398Z,4.83
2018-09-19T18:45:10.072Z,4.63
2018-09-19T18:47:38.891Z,4.23
2018-09-19T18:50:07.733Z,4.93
2018-09-19T18:52:36.362Z,4.70
2018-09-19T18:55:05.692Z,4.97
2018-09-19T18:57:34.447Z,4.47
2018-09-19T19:00:03.478Z,4.90
2018-09-19T19:02:32.587Z,4.20
2018-09-19T19:05:01.342Z,3.93
2018-09-19T19:07:30.319Z,5.00
2018-09-19T19:09:59.043Z,4.50
2018-09-19T19:12:28.039Z,4.43
2018-09-19T19:14:57.413Z,4.50
2018-09-19T19:17:26.526Z,4.43
2018-09-19T19:19:55.539Z,4.70
2018-09-19T19:22:24.254Z,4.50
2018-09-19T19:24:53.100Z,5.00
2018-09-19T19:27:22.275Z,4.23
2018-09-19T19:29:51.213Z,4.77
2018-09-19T19:32:20.129Z,5.13
2018-09-19T19:34:48.923Z,5.20
2018-09-19T19:37:17.822Z,4.60
2018-09-19T19:39:46.793Z,4.90
2018-09-19T19:42:15.434Z,4.93
2018-09-19T19:44:44.142Z,5.60
2018-09-19T19:47:13.123Z,5.73
2018-09-19T19:49:42.158Z,4.80
2018-09-19T19:52:11.254Z,4.40
2018-09-19T19:54:40.269Z,4.60
2018-09-19T19:57:09.379Z,4.50
2018-09-19T19:59:38.539Z,5.87
2018-09-19T20:02:07.463Z,5.63
2018-09-19T20:04:36.109Z,4.30
2018-09-19T20:07:05.286Z,4.60
2018-09-19T20:09:34.325Z,4.67
2018-09-19T20:12:03.030Z,4.10
2018-09-19T20:14:31.642Z,4.63
2018-09-19T20:17:00.343Z,3.90
2018-09-19T20:19:29.234Z,4.17
2018-09-19T20:21:58.182Z,4.50
2018-09-19T20:24:27.158Z,4.23
2018-09-19T20:26:56.005Z,4.00
2018-09-19T20:29:24.999Z,5.60
2018-09-19T20:31:54.011Z,5.70
2018-09-19T20:34:23.024Z,5.53
2018-09-19T20:36:51.882Z,6.03
2018-09-19T20:39:20.455Z,5.53
2018-09-19T20:41:49.085Z,5.70
2018-09-19T20:44:17.827Z,5.90
2018-09-19T20:46:46.623Z,5.77
2018-09-19T20:49:15.438Z,5.93
2018-09-19T20:51:44.266Z,5.50
2018-09-19T20:54:13.552Z,4.57
2018-09-19T20:56:42.814Z,5.10
2018-09-19T20:59:11.674Z,5.70
2018-09-19T21:01:40.907Z,5.63
2018-09-19T21:04:09.638Z,5.60
2018-09-19T21:06:38.575Z,5.70
2018-09-19T21:09:07.495Z,5.97
2018-09-19T21:11:36.336Z,5.47
2018-09-19T21:14:05.050Z,5.20
2018-09-19T21:16:33.930Z,5.10
2018-09-19T21:19:02.634Z,5.30
2018-09-19T21:21:31.781Z,5.27
2018-09-19T21:24:00.690Z,5.43
2018-09-19T21:26:29.505Z,5.13
2018-09-19T21:28:58.630Z,5.17
2018-09-19T21:31:27.616Z,5.47
2018-09-19T21:33:57.411Z,5.63
2018-09-19T21:36:26.281Z,5.17
2018-09-19T21:38:54.912Z,5.30
2018-09-19T21:41:23.591Z,5.50
2018-09-19T21:43:52.427Z,5.03
2018-09-19T21:46:21.496Z,5.50
2018-09-19T21:48:50.278Z,5.27
2018-09-19T21:51:19.242Z,5.43
2018-09-19T21:53:48.010Z,5.57
2018-09-19T21:56:16.847Z,4.97
2018-09-19T21:58:45.813Z,5.43
2018-09-19T22:01:14.781Z,6.03
2018-09-19T22:03:43.634Z,4.63
2018-09-19T22:06:12.510Z,6.03
2018-09-19T22:08:41.287Z,5.50
2018-09-19T22:11:09.943Z,5.17
2018-09-19T22:13:38.606Z,5.70
2018-09-19T22:16:07.301Z,5.53
2018-09-19T22:18:36.490Z,5.77
2018-09-19T22:21:05.473Z,5.43
2018-09-19T22:23:34.428Z,8.37
2018-09-19T22:26:03.269Z,71.23
2018-09-19T22:28:32.318Z,189.87
2018-09-19T22:31:01.199Z,424.27
2018-09-19T22:33:29.888Z,304.30
2018-09-19T22:35:58.673Z,16.07
2018-09-19T22:38:27.734Z,37.90
2018-09-19T22:40:56.574Z,112.13
2018-09-19T22:43:25.392Z,13.40
2018-09-19T22:45:54.259Z,7.07
2018-09-19T22:48:23.181Z,7.10
2018-09-19T22:50:52.188Z,32.67
2018-09-19T22:53:21.094Z,13.13
2018-09-19T22:55:49.853Z,31.83
2018-09-19T22:58:18.839Z,34.33
2018-09-19T23:00:48.081Z,9.13
2018-09-19T23:03:16.951Z,24.00
2018-09-19T23:05:45.859Z,7.77
2018-09-19T23:08:14.719Z,11.50
2018-09-19T23:10:43.375Z,13.77
2018-09-19T23:13:12.127Z,12.97
2018-09-19T23:15:41.159Z,17.37
2018-09-19T23:18:10.490Z,8.50
2018-09-19T23:20:39.654Z,8.40
2018-09-19T23:23:08.815Z,6.37
2018-09-19T23:25:37.930Z,6.50
2018-09-19T23:28:06.814Z,8.50
2018-09-19T23:30:35.660Z,7.87
2018-09-19T23:33:04.606Z,9.03
2018-09-19T23:35:33.474Z,6.67
2018-09-19T23:38:02.401Z,6.63
2018-09-19T23:40:31.214Z,6.90
2018-09-19T23:42:59.858Z,6.13
2018-09-19T23:45:28.705Z,6.40
2018-09-19T23:47:57.804Z,14.83
2018-09-19T23:50:26.904Z,6.40
2018-09-19T23:52:55.728Z,6.57
2018-09-19T23:55:24.580Z,6.50
2018-09-19T23:57:53.493Z,6.23
